sensor_id;sensor_type;location;lat;lon;timestamp;pressure;altitude;pressure_sealevel;temperature;humidity
71145;BME280;58812;47.698;17.726;2023-03-23T00:02:02;99970.44;;;7.62;80.27
71145;BME280;58812;47.698;17.726;2023-03-23T00:04:28;99973.69;;;7.66;80.21
71145;BME280;58812;47.698;17.726;2023-03-23T00:06:54;99970.28;;;7.64;80.00
71145;BME280;58812;47.698;17.726;2023-03-23T00:09:19;99964.22;;;7.52;80.20
71145;BME280;58812;47.698;17.726;2023-03-23T00:11:49;99959.56;;;7.44;80.55
71145;BME280;58812;47.698;17.726;2023-03-23T00:14:16;99963.75;;;7.37;80.94
71145;BME280;58812;47.698;17.726;2023-03-23T00:16:41;99963.06;;;7.35;81.47
71145;BME280;58812;47.698;17.726;2023-03-23T00:19:12;99960.91;;;7.29;81.56
71145;BME280;58812;47.698;17.726;2023-03-23T00:21:39;99960.06;;;7.29;81.53
71145;BME280;58812;47.698;17.726;2023-03-23T00:24:15;99950.78;;;7.23;81.38
71145;BME280;58812;47.698;17.726;2023-03-23T00:26:42;99956.00;;;7.25;81.58
71145;BME280;58812;47.698;17.726;2023-03-23T00:29:19;99953.34;;;7.25;81.42
71145;BME280;58812;47.698;17.726;2023-03-23T00:31:47;99953.59;;;7.21;81.74
71145;BME280;58812;47.698;17.726;2023-03-23T00:34:15;99961.44;;;7.23;81.77
71145;BME280;58812;47.698;17.726;2023-03-23T00:36:44;99952.75;;;7.21;82.12
71145;BME280;58812;47.698;17.726;2023-03-23T00:39:10;99955.53;;;7.19;81.96
71145;BME280;58812;47.698;17.726;2023-03-23T00:41:35;99953.59;;;7.21;81.98
71145;BME280;58812;47.698;17.726;2023-03-23T00:44:02;99949.69;;;7.26;81.80
71145;BME280;58812;47.698;17.726;2023-03-23T00:46:27;99944.62;;;7.22;81.55
71145;BME280;58812;47.698;17.726;2023-03-23T00:48:54;99942.53;;;7.26;81.52
71145;BME280;58812;47.698;17.726;2023-03-23T00:51:20;99943.53;;;7.25;81.35
71145;BME280;58812;47.698;17.726;2023-03-23T00:53:46;99935.94;;;7.20;81.53
71145;BME280;58812;47.698;17.726;2023-03-23T00:56:12;99937.91;;;7.18;82.06
71145;BME280;58812;47.698;17.726;2023-03-23T00:58:38;99930.88;;;7.17;81.88
71145;BME280;58812;47.698;17.726;2023-03-23T01:01:04;99921.47;;;7.13;81.54
71145;BME280;58812;47.698;17.726;2023-03-23T01:03:29;99919.78;;;7.12;81.83
71145;BME280;58812;47.698;17.726;2023-03-23T01:05:55;99917.97;;;7.13;81.98
71145;BME280;58812;47.698;17.726;2023-03-23T01:08:22;99922.56;;;7.11;81.59
71145;BME280;58812;47.698;17.726;2023-03-23T01:10:48;99917.37;;;7.09;82.05
71145;BME280;58812;47.698;17.726;2023-03-23T01:13:15;99914.56;;;7.01;82.16
71145;BME280;58812;47.698;17.726;2023-03-23T01:15:41;99909.75;;;6.95;82.14
71145;BME280;58812;47.698;17.726;2023-03-23T01:18:07;99910.00;;;6.92;82.56
71145;BME280;58812;47.698;17.726;2023-03-23T01:20:35;99906.66;;;6.90;82.43
71145;BME280;58812;47.698;17.726;2023-03-23T01:23:01;99908.59;;;6.88;82.86
71145;BME280;58812;47.698;17.726;2023-03-23T01:25:32;99906.56;;;6.80;83.05
71145;BME280;58812;47.698;17.726;2023-03-23T01:28:00;99903.06;;;6.80;83.52
71145;BME280;58812;47.698;17.726;2023-03-23T01:30:25;99903.47;;;6.75;83.44
71145;BME280;58812;47.698;17.726;2023-03-23T01:32:52;99904.59;;;6.73;83.73
71145;BME280;58812;47.698;17.726;2023-03-23T01:35:18;99908.75;;;6.65;83.66
71145;BME280;58812;47.698;17.726;2023-03-23T01:37:44;99900.31;;;6.60;84.13
71145;BME280;58812;47.698;17.726;2023-03-23T01:40:10;99897.88;;;6.57;84.13
71145;BME280;58812;47.698;17.726;2023-03-23T01:42:37;99902.50;;;6.55;84.18
71145;BME280;58812;47.698;17.726;2023-03-23T01:47:45;99903.63;;;6.53;84.29
71145;BME280;58812;47.698;17.726;2023-03-23T01:50:11;99898.31;;;6.53;84.10
71145;BME280;58812;47.698;17.726;2023-03-23T01:52:36;99903.63;;;6.53;84.38
71145;BME280;58812;47.698;17.726;2023-03-23T01:55:03;99899.00;;;6.55;84.34
71145;BME280;58812;47.698;17.726;2023-03-23T01:57:29;99904.31;;;6.55;84.42
71145;BME280;58812;47.698;17.726;2023-03-23T01:59:57;99898.03;;;6.56;84.60
71145;BME280;58812;47.698;17.726;2023-03-23T02:02:32;99894.97;;;6.60;84.29
71145;BME280;58812;47.698;17.726;2023-03-23T02:05:02;99898.34;;;6.62;84.16
71145;BME280;58812;47.698;17.726;2023-03-23T02:07:31;99890.00;;;6.67;84.06
71145;BME280;58812;47.698;17.726;2023-03-23T02:09:57;99885.78;;;6.64;84.33
71145;BME280;58812;47.698;17.726;2023-03-23T02:12:22;99888.00;;;6.59;84.24
71145;BME280;58812;47.698;17.726;2023-03-23T02:14:48;99898.88;;;6.56;84.42
71145;BME280;58812;47.698;17.726;2023-03-23T02:20:08;99905.94;;;6.67;84.19
71145;BME280;58812;47.698;17.726;2023-03-23T02:34:28;99914.59;;;6.59;84.79
71145;BME280;58812;47.698;17.726;2023-03-23T02:37:14;99904.19;;;6.56;84.77
71145;BME280;58812;47.698;17.726;2023-03-23T02:39:56;99908.28;;;6.60;84.45
71145;BME280;58812;47.698;17.726;2023-03-23T02:42:31;99904.19;;;6.56;84.61
71145;BME280;58812;47.698;17.726;2023-03-23T02:45:03;99908.66;;;6.56;84.69
71145;BME280;58812;47.698;17.726;2023-03-23T02:47:29;99901.81;;;6.53;84.48
71145;BME280;58812;47.698;17.726;2023-03-23T02:49:56;99907.81;;;6.55;84.78
71145;BME280;58812;47.698;17.726;2023-03-23T02:52:34;99911.47;;;6.54;84.70
71145;BME280;58812;47.698;17.726;2023-03-23T02:55:02;99921.12;;;6.55;84.67
71145;BME280;58812;47.698;17.726;2023-03-23T02:57:29;99928.50;;;6.52;84.95
71145;BME280;58812;47.698;17.726;2023-03-23T02:59:55;99920.09;;;6.47;84.71
71145;BME280;58812;47.698;17.726;2023-03-23T03:02:29;99920.19;;;6.45;84.68
71145;BME280;58812;47.698;17.726;2023-03-23T03:10:31;99924.66;;;6.24;85.38
71145;BME280;58812;47.698;17.726;2023-03-23T03:13:04;99917.41;;;6.26;85.37
71145;BME280;58812;47.698;17.726;2023-03-23T03:15:38;99930.22;;;6.21;85.29
71145;BME280;58812;47.698;17.726;2023-03-23T03:20:32;99927.38;;;6.12;85.80
71145;BME280;58812;47.698;17.726;2023-03-23T03:23:00;99928.94;;;6.04;85.93
71145;BME280;58812;47.698;17.726;2023-03-23T03:25:28;99928.62;;;5.97;86.49
71145;BME280;58812;47.698;17.726;2023-03-23T03:27:54;99928.88;;;5.94;86.84
71145;BME280;58812;47.698;17.726;2023-03-23T03:30:25;99924.03;;;5.88;87.04
71145;BME280;58812;47.698;17.726;2023-03-23T03:32:52;99929.84;;;5.82;86.90
71145;BME280;58812;47.698;17.726;2023-03-23T03:35:22;99927.28;;;5.80;87.10
71145;BME280;58812;47.698;17.726;2023-03-23T03:37:48;99931.41;;;5.73;87.23
71145;BME280;58812;47.698;17.726;2023-03-23T03:40:18;99931.91;;;5.67;87.36
71145;BME280;58812;47.698;17.726;2023-03-23T03:42:44;99926.25;;;5.60;87.68
71145;BME280;58812;47.698;17.726;2023-03-23T03:45:15;99923.88;;;5.57;87.62
71145;BME280;58812;47.698;17.726;2023-03-23T03:47:41;99928.78;;;5.51;88.48
71145;BME280;58812;47.698;17.726;2023-03-23T03:50:07;99937.38;;;5.54;88.42
71145;BME280;58812;47.698;17.726;2023-03-23T03:52:34;99939.91;;;5.45;88.33
71145;BME280;58812;47.698;17.726;2023-03-23T03:54:59;99937.38;;;5.43;88.52
71145;BME280;58812;47.698;17.726;2023-03-23T03:57:25;99931.34;;;5.41;88.60
71145;BME280;58812;47.698;17.726;2023-03-23T03:59:51;99931.84;;;5.35;88.95
71145;BME280;58812;47.698;17.726;2023-03-23T04:02:18;99928.22;;;5.36;88.54
71145;BME280;58812;47.698;17.726;2023-03-23T04:04:48;99929.91;;;5.37;88.89
71145;BME280;58812;47.698;17.726;2023-03-23T04:07:14;99934.50;;;5.35;88.72
71145;BME280;58812;47.698;17.726;2023-03-23T04:09:42;99933.75;;;5.33;88.99
71145;BME280;58812;47.698;17.726;2023-03-23T04:12:08;99930.38;;;5.31;88.60
71145;BME280;58812;47.698;17.726;2023-03-23T04:14:33;99937.72;;;5.27;88.98
71145;BME280;58812;47.698;17.726;2023-03-23T04:16:59;99934.97;;;5.29;89.09
71145;BME280;58812;47.698;17.726;2023-03-23T04:19:25;99933.03;;;5.20;89.26
71145;BME280;58812;47.698;17.726;2023-03-23T04:21:53;99937.63;;;5.18;89.40
71145;BME280;58812;47.698;17.726;2023-03-23T04:24:18;99932.69;;;5.13;89.72
71145;BME280;58812;47.698;17.726;2023-03-23T04:26:47;99925.69;;;5.12;89.38
71145;BME280;58812;47.698;17.726;2023-03-23T04:29:12;99929.19;;;5.13;89.23
71145;BME280;58812;47.698;17.726;2023-03-23T04:31:38;99922.19;;;5.12;89.51
71145;BME280;58812;47.698;17.726;2023-03-23T04:34:04;99914.59;;;5.07;89.62
71145;BME280;58812;47.698;17.726;2023-03-23T04:36:30;99920.25;;;5.02;90.11
71145;BME280;58812;47.698;17.726;2023-03-23T04:38:59;99922.19;;;5.00;89.67
71145;BME280;58812;47.698;17.726;2023-03-23T04:41:25;99924.72;;;5.02;89.77
71145;BME280;58812;47.698;17.726;2023-03-23T04:43:51;99924.84;;;5.00;89.44
71145;BME280;58812;47.698;17.726;2023-03-23T04:46:19;99919.41;;;5.02;89.91
71145;BME280;58812;47.698;17.726;2023-03-23T04:48:46;99920.25;;;5.02;89.81
71145;BME280;58812;47.698;17.726;2023-03-23T04:51:12;99916.41;;;5.06;89.83
71145;BME280;58812;47.698;17.726;2023-03-23T04:53:38;99919.06;;;5.06;89.41
71145;BME280;58812;47.698;17.726;2023-03-23T04:56:04;99918.09;;;5.07;89.23
71145;BME280;58812;47.698;17.726;2023-03-23T04:58:30;99916.13;;;5.09;89.26
71145;BME280;58812;47.698;17.726;2023-03-23T05:00:59;99916.41;;;5.06;89.57
71145;BME280;58812;47.698;17.726;2023-03-23T05:03:25;99922.91;;;5.14;89.38
71145;BME280;58812;47.698;17.726;2023-03-23T05:05:52;99934.50;;;5.13;89.42
71145;BME280;58812;47.698;17.726;2023-03-23T05:08:24;99926.28;;;5.16;89.37
71145;BME280;58812;47.698;17.726;2023-03-23T05:10:54;99936.19;;;5.25;89.12
71145;BME280;58812;47.698;17.726;2023-03-23T05:13:20;99938.13;;;5.34;88.89
71145;BME280;58812;47.698;17.726;2023-03-23T05:15:46;99929.91;;;5.37;88.72
71145;BME280;58812;47.698;17.726;2023-03-23T05:18:12;99934.22;;;5.49;88.35
71145;BME280;58812;47.698;17.726;2023-03-23T05:20:37;99934.44;;;5.69;87.71
71145;BME280;58812;47.698;17.726;2023-03-23T05:23:04;99938.03;;;5.90;87.54
71145;BME280;58812;47.698;17.726;2023-03-23T05:25:30;99936.03;;;6.14;86.79
71145;BME280;58812;47.698;17.726;2023-03-23T05:27:57;99937.84;;;6.46;85.37
71145;BME280;58812;47.698;17.726;2023-03-23T05:30:24;99946.81;;;6.66;84.55
71145;BME280;58812;47.698;17.726;2023-03-23T05:32:49;99942.47;;;6.86;83.32
71145;BME280;58812;47.698;17.726;2023-03-23T05:35:17;99948.53;;;7.18;82.51
71145;BME280;58812;47.698;17.726;2023-03-23T05:37:43;99953.81;;;7.39;81.78
71145;BME280;58812;47.698;17.726;2023-03-23T05:40:09;99952.06;;;7.59;80.96
71145;BME280;58812;47.698;17.726;2023-03-23T05:42:37;99960.00;;;7.90;79.55
71145;BME280;58812;47.698;17.726;2023-03-23T05:45:05;99956.00;;;8.34;77.04
71145;BME280;58812;47.698;17.726;2023-03-23T05:47:31;99963.87;;;8.74;76.04
71145;BME280;58812;47.698;17.726;2023-03-23T05:49:57;99965.09;;;9.09;74.81
71145;BME280;58812;47.698;17.726;2023-03-23T05:52:24;99964.59;;;9.23;72.61
71145;BME280;58812;47.698;17.726;2023-03-23T05:54:50;99965.31;;;9.62;72.03
71145;BME280;58812;47.698;17.726;2023-03-23T05:57:16;99967.44;;;9.86;71.24
71145;BME280;58812;47.698;17.726;2023-03-23T05:59:44;99966.41;;;9.97;70.43
71145;BME280;58812;47.698;17.726;2023-03-23T06:02:10;99964.25;;;10.28;69.81
71145;BME280;58812;47.698;17.726;2023-03-23T06:04:36;99961.94;;;10.69;68.63
71145;BME280;58812;47.698;17.726;2023-03-23T06:07:04;99967.72;;;11.00;67.63
71145;BME280;58812;47.698;17.726;2023-03-23T06:09:29;99969.97;;;11.13;67.54
71145;BME280;58812;47.698;17.726;2023-03-23T06:11:55;99966.81;;;11.17;67.56
71145;BME280;58812;47.698;17.726;2023-03-23T06:14:21;99964.56;;;11.31;66.93
71145;BME280;58812;47.698;17.726;2023-03-23T06:16:47;99966.88;;;11.60;66.65
71145;BME280;58812;47.698;17.726;2023-03-23T06:19:13;99967.72;;;11.86;65.87
71145;BME280;58812;47.698;17.726;2023-03-23T06:21:39;99966.12;;;12.26;64.85
71145;BME280;58812;47.698;17.726;2023-03-23T06:24:05;99974.75;;;12.54;63.96
71145;BME280;58812;47.698;17.726;2023-03-23T06:26:34;99983.31;;;12.74;63.17
71145;BME280;58812;47.698;17.726;2023-03-23T06:29:02;99989.03;;;12.87;61.47
71145;BME280;58812;47.698;17.726;2023-03-23T06:31:30;99982.12;;;13.25;61.30
71145;BME280;58812;47.698;17.726;2023-03-23T06:33:56;99993.81;;;13.65;59.50
71145;BME280;58812;47.698;17.726;2023-03-23T06:36:21;99993.94;;;13.72;59.78
71145;BME280;58812;47.698;17.726;2023-03-23T06:38:47;99991.78;;;14.06;58.37
71145;BME280;58812;47.698;17.726;2023-03-23T06:41:13;99988.41;;;14.04;57.94
71145;BME280;58812;47.698;17.726;2023-03-23T06:43:39;99995.75;;;14.19;56.75
71145;BME280;58812;47.698;17.726;2023-03-23T06:46:07;99993.97;;;14.34;56.85
71145;BME280;58812;47.698;17.726;2023-03-23T06:48:33;99997.41;;;14.59;56.21
71145;BME280;58812;47.698;17.726;2023-03-23T06:50:58;99998.38;;;14.89;55.80
71145;BME280;58812;47.698;17.726;2023-03-23T06:53:24;100001.56;;;15.07;55.83
71145;BME280;58812;47.698;17.726;2023-03-23T06:55:50;100001.97;;;15.34;55.00
71145;BME280;58812;47.698;17.726;2023-03-23T06:58:15;99996.66;;;15.63;52.73
71145;BME280;58812;47.698;17.726;2023-03-23T07:00:41;100002.16;;;15.85;51.09
71145;BME280;58812;47.698;17.726;2023-03-23T07:03:07;100005.03;;;15.68;52.35
71145;BME280;58812;47.698;17.726;2023-03-23T07:05:34;100009.19;;;16.15;50.52
71145;BME280;58812;47.698;17.726;2023-03-23T07:08:01;100002.00;;;15.48;51.82
71145;BME280;58812;47.698;17.726;2023-03-23T07:10:26;100009.59;;;16.34;50.82
71145;BME280;58812;47.698;17.726;2023-03-23T07:12:52;100014.72;;;16.79;49.53
71145;BME280;58812;47.698;17.726;2023-03-23T07:15:18;100017.28;;;17.09;49.26
71145;BME280;58812;47.698;17.726;2023-03-23T07:17:43;100017.66;;;17.06;49.16
71145;BME280;58812;47.698;17.726;2023-03-23T07:20:09;100019.91;;;16.45;49.08
71145;BME280;58812;47.698;17.726;2023-03-23T07:22:35;100019.47;;;16.99;48.96
71145;BME280;58812;47.698;17.726;2023-03-23T07:25:00;100021.09;;;16.57;48.65
71145;BME280;58812;47.698;17.726;2023-03-23T07:27:26;100022.16;;;16.77;48.58
71145;BME280;58812;47.698;17.726;2023-03-23T07:29:52;100020.25;;;16.20;49.71
71145;BME280;58812;47.698;17.726;2023-03-23T07:32:18;100029.06;;;16.44;49.55
71145;BME280;58812;47.698;17.726;2023-03-23T07:34:43;100028.81;;;16.60;48.97
71145;BME280;58812;47.698;17.726;2023-03-23T07:37:09;100027.31;;;16.94;48.60
71145;BME280;58812;47.698;17.726;2023-03-23T07:39:35;100030.13;;;17.28;47.80
71145;BME280;58812;47.698;17.726;2023-03-23T07:42:01;100034.25;;;18.15;45.03
71145;BME280;58812;47.698;17.726;2023-03-23T07:44:26;100030.72;;;17.80;41.78
71145;BME280;58812;47.698;17.726;2023-03-23T07:46:52;100029.72;;;17.59;42.63
71145;BME280;58812;47.698;17.726;2023-03-23T07:49:18;100032.91;;;17.98;41.73
71145;BME280;58812;47.698;17.726;2023-03-23T07:51:44;100031.13;;;17.77;41.58
71145;BME280;58812;47.698;17.726;2023-03-23T07:54:10;100033.66;;;17.57;43.17
71145;BME280;58812;47.698;17.726;2023-03-23T07:56:36;100029.41;;;18.04;41.52
71145;BME280;58812;47.698;17.726;2023-03-23T07:59:03;100032.81;;;18.26;41.58
71145;BME280;58812;47.698;17.726;2023-03-23T08:01:30;100036.56;;;18.25;41.36
71145;BME280;58812;47.698;17.726;2023-03-23T08:03:55;100036.72;;;18.10;40.45
71145;BME280;58812;47.698;17.726;2023-03-23T08:06:23;100045.13;;;17.87;41.18
71145;BME280;58812;47.698;17.726;2023-03-23T08:08:49;100034.13;;;17.95;41.33
71145;BME280;58812;47.698;17.726;2023-03-23T08:11:15;100038.19;;;17.78;41.97
71145;BME280;58812;47.698;17.726;2023-03-23T08:13:41;100041.97;;;17.27;41.85
71145;BME280;58812;47.698;17.726;2023-03-23T08:16:08;100037.78;;;17.74;42.32
71145;BME280;58812;47.698;17.726;2023-03-23T08:18:35;100041.19;;;17.89;41.01
71145;BME280;58812;47.698;17.726;2023-03-23T08:21:02;100044.59;;;17.70;41.10
71145;BME280;58812;47.698;17.726;2023-03-23T08:23:29;100044.53;;;17.63;42.28
71145;BME280;58812;47.698;17.726;2023-03-23T08:25:55;100046.12;;;17.51;41.80
71145;BME280;58812;47.698;17.726;2023-03-23T08:28:21;100049.44;;;18.09;41.46
71145;BME280;58812;47.698;17.726;2023-03-23T08:30:46;100046.16;;;17.58;41.65
71145;BME280;58812;47.698;17.726;2023-03-23T08:33:13;100046.50;;;17.48;41.74
71145;BME280;58812;47.698;17.726;2023-03-23T08:35:39;100044.00;;;17.47;41.86
71145;BME280;58812;47.698;17.726;2023-03-23T08:38:05;100043.16;;;17.46;41.89
71145;BME280;58812;47.698;17.726;2023-03-23T08:40:31;100043.03;;;17.82;41.21
71145;BME280;58812;47.698;17.726;2023-03-23T08:42:57;100040.59;;;17.66;40.91
71145;BME280;58812;47.698;17.726;2023-03-23T08:45:24;100043.81;;;17.76;40.75
71145;BME280;58812;47.698;17.726;2023-03-23T08:47:50;100045.38;;;17.64;41.00
71145;BME280;58812;47.698;17.726;2023-03-23T08:50:23;100037.84;;;17.87;40.63
71145;BME280;58812;47.698;17.726;2023-03-23T08:52:49;100032.91;;;17.70;41.11
71145;BME280;58812;47.698;17.726;2023-03-23T08:55:15;100036.03;;;18.01;40.74
71145;BME280;58812;47.698;17.726;2023-03-23T08:57:43;100035.66;;;18.04;41.22
71145;BME280;58812;47.698;17.726;2023-03-23T09:00:15;100039.97;;;17.64;40.75
71145;BME280;58812;47.698;17.726;2023-03-23T09:02:47;100040.31;;;17.82;41.08
71145;BME280;58812;47.698;17.726;2023-03-23T09:05:14;100034.13;;;17.95;40.90
71145;BME280;58812;47.698;17.726;2023-03-23T09:07:41;100031.44;;;18.02;41.28
71145;BME280;58812;47.698;17.726;2023-03-23T09:10:08;100022.03;;;17.63;41.22
71145;BME280;58812;47.698;17.726;2023-03-23T09:12:35;100029.25;;;17.77;41.51
71145;BME280;58812;47.698;17.726;2023-03-23T09:15:03;100028.75;;;17.67;41.85
71145;BME280;58812;47.698;17.726;2023-03-23T09:17:35;100017.00;;;17.60;42.65
71145;BME280;58812;47.698;17.726;2023-03-23T09:20:02;100017.22;;;17.58;42.26
71145;BME280;58812;47.698;17.726;2023-03-23T09:22:31;100020.69;;;17.46;41.99
71145;BME280;58812;47.698;17.726;2023-03-23T09:24:57;100019.06;;;17.51;42.41
71145;BME280;58812;47.698;17.726;2023-03-23T09:27:22;100019.38;;;17.70;42.99
71145;BME280;58812;47.698;17.726;2023-03-23T09:29:48;100027.13;;;17.73;42.41
71145;BME280;58812;47.698;17.726;2023-03-23T09:32:14;100030.91;;;17.78;42.45
71145;BME280;58812;47.698;17.726;2023-03-23T09:34:40;100035.41;;;17.99;42.11
71145;BME280;58812;47.698;17.726;2023-03-23T09:37:06;100035.72;;;18.24;41.49
71145;BME280;58812;47.698;17.726;2023-03-23T09:39:32;100036.78;;;18.23;41.61
71145;BME280;58812;47.698;17.726;2023-03-23T09:50:29;100017.19;;;18.21;40.93
71145;BME280;58812;47.698;17.726;2023-03-23T09:53:15;100020.41;;;18.51;41.38
71145;BME280;58812;47.698;17.726;2023-03-23T09:55:42;100027.41;;;19.27;40.28
71145;BME280;58812;47.698;17.726;2023-03-23T09:58:27;100030.16;;;20.31;38.73
71145;BME280;58812;47.698;17.726;2023-03-23T10:01:12;100027.00;;;20.47;37.71
71145;BME280;58812;47.698;17.726;2023-03-23T10:03:42;100022.78;;;19.93;38.31
71145;BME280;58812;47.698;17.726;2023-03-23T10:06:14;100019.06;;;19.61;38.53
71145;BME280;58812;47.698;17.726;2023-03-23T10:08:52;100019.50;;;19.18;39.58
71145;BME280;58812;47.698;17.726;2023-03-23T10:17:33;100010.91;;;18.88;39.84
71145;BME280;58812;47.698;17.726;2023-03-23T10:22:54;100018.66;;;19.31;39.92
71145;BME280;58812;47.698;17.726;2023-03-23T10:25:24;100012.63;;;19.09;39.92
71145;BME280;58812;47.698;17.726;2023-03-23T10:33:08;100012.63;;;19.16;39.00
71145;BME280;58812;47.698;17.726;2023-03-23T10:35:52;100019.66;;;18.84;39.93
71145;BME280;58812;47.698;17.726;2023-03-23T10:38:32;100021.34;;;18.85;39.32
71145;BME280;58812;47.698;17.726;2023-03-23T10:41:04;100003.00;;;19.33;39.14
71145;BME280;58812;47.698;17.726;2023-03-23T10:43:31;100007.53;;;19.79;39.00
71145;BME280;58812;47.698;17.726;2023-03-23T10:46:01;99995.25;;;20.28;38.41
71145;BME280;58812;47.698;17.726;2023-03-23T10:48:31;99990.31;;;20.12;37.62
71145;BME280;58812;47.698;17.726;2023-03-23T10:51:00;99995.16;;;20.54;37.86
71145;BME280;58812;47.698;17.726;2023-03-23T10:53:43;99988.47;;;20.50;37.30
71145;BME280;58812;47.698;17.726;2023-03-23T10:56:50;99989.62;;;20.68;36.44
71145;BME280;58812;47.698;17.726;2023-03-23T10:59:21;99966.81;;;20.31;36.85
71145;BME280;58812;47.698;17.726;2023-03-23T11:01:54;99958.88;;;20.29;36.57
71145;BME280;58812;47.698;17.726;2023-03-23T11:04:20;99958.88;;;20.92;36.29
71145;BME280;58812;47.698;17.726;2023-03-23T11:06:51;99959.72;;;21.43;35.58
71145;BME280;58812;47.698;17.726;2023-03-23T11:09:19;99958.53;;;21.57;34.77
71145;BME280;58812;47.698;17.726;2023-03-23T11:11:50;99964.38;;;21.11;34.69
71145;BME280;58812;47.698;17.726;2023-03-23T11:16:53;99965.47;;;21.28;35.03
71145;BME280;58812;47.698;17.726;2023-03-23T11:19:31;99958.00;;;21.23;34.94
71145;BME280;58812;47.698;17.726;2023-03-23T11:22:08;99970.81;;;21.66;34.63
71145;BME280;58812;47.698;17.726;2023-03-23T11:24:41;99974.28;;;21.92;33.80
71145;BME280;58812;47.698;17.726;2023-03-23T11:27:09;99962.87;;;21.83;33.35
71145;BME280;58812;47.698;17.726;2023-03-23T11:29:41;99965.50;;;21.53;34.35
71145;BME280;58812;47.698;17.726;2023-03-23T11:32:12;99963.91;;;21.82;34.36
71145;BME280;58812;47.698;17.726;2023-03-23T11:34:45;99954.28;;;21.98;33.73
71145;BME280;58812;47.698;17.726;2023-03-23T11:37:18;99965.25;;;22.28;33.72
71145;BME280;58812;47.698;17.726;2023-03-23T11:42:42;99962.22;;;21.81;33.46
71145;BME280;58812;47.698;17.726;2023-03-23T11:45:20;99959.53;;;22.18;33.92
71145;BME280;58812;47.698;17.726;2023-03-23T11:50:52;99957.91;;;22.70;33.18
71145;BME280;58812;47.698;17.726;2023-03-23T11:53:28;99953.38;;;22.22;33.42
71145;BME280;58812;47.698;17.726;2023-03-23T11:58:28;99946.63;;;22.55;33.29
71145;BME280;58812;47.698;17.726;2023-03-23T12:06:38;99936.59;;;22.37;32.27
71145;BME280;58812;47.698;17.726;2023-03-23T12:18:02;99936.56;;;22.25;32.38
71145;BME280;58812;47.698;17.726;2023-03-23T12:23:25;99916.94;;;23.00;31.62
71145;BME280;58812;47.698;17.726;2023-03-23T12:26:02;99922.75;;;22.92;31.87
71145;BME280;58812;47.698;17.726;2023-03-23T12:31:18;99915.97;;;22.83;31.65
71145;BME280;58812;47.698;17.726;2023-03-23T12:36:34;99905.97;;;22.77;31.73
71145;BME280;58812;47.698;17.726;2023-03-23T12:44:57;99906.66;;;21.82;32.08
71145;BME280;58812;47.698;17.726;2023-03-23T12:47:41;99897.81;;;22.35;31.39
71145;BME280;58812;47.698;17.726;2023-03-23T12:50:30;99898.62;;;22.24;30.79
71145;BME280;58812;47.698;17.726;2023-03-23T12:53:15;99898.47;;;22.49;32.40
71145;BME280;58812;47.698;17.726;2023-03-23T12:58:38;99894.28;;;22.46;31.80
71145;BME280;58812;47.698;17.726;2023-03-23T13:01:28;99889.88;;;22.87;31.94
71145;BME280;58812;47.698;17.726;2023-03-23T13:03:59;99892.44;;;22.28;31.77
71145;BME280;58812;47.698;17.726;2023-03-23T13:06:41;99890.44;;;22.05;32.28
71145;BME280;58812;47.698;17.726;2023-03-23T13:09:46;99891.16;;;22.01;32.17
71145;BME280;58812;47.698;17.726;2023-03-23T13:12:08;99890.44;;;22.05;31.59
71145;BME280;58812;47.698;17.726;2023-03-23T13:14:56;99888.63;;;21.99;31.45
71145;BME280;58812;47.698;17.726;2023-03-23T13:20:48;99881.34;;;22.30;30.70
71145;BME280;58812;47.698;17.726;2023-03-23T13:23:28;99882.25;;;22.65;31.05
71145;BME280;58812;47.698;17.726;2023-03-23T13:28:30;99884.06;;;22.30;30.55
71145;BME280;58812;47.698;17.726;2023-03-23T13:33:32;99870.84;;;22.80;30.71
71145;BME280;58812;47.698;17.726;2023-03-23T13:36:09;99884.13;;;22.77;30.97
71145;BME280;58812;47.698;17.726;2023-03-23T13:38:36;99871.66;;;22.16;30.82
71145;BME280;58812;47.698;17.726;2023-03-23T13:41:11;99873.00;;;21.58;31.68
71145;BME280;58812;47.698;17.726;2023-03-23T13:43:39;99870.69;;;21.62;32.42
71145;BME280;58812;47.698;17.726;2023-03-23T13:48:45;99867.12;;;22.09;31.61
71145;BME280;58812;47.698;17.726;2023-03-23T13:57:01;99858.75;;;22.23;31.66
71145;BME280;58812;47.698;17.726;2023-03-23T13:59:34;99857.22;;;21.97;31.47
71145;BME280;58812;47.698;17.726;2023-03-23T14:04:54;99846.94;;;21.50;32.51
71145;BME280;58812;47.698;17.726;2023-03-23T14:07:20;99853.12;;;21.57;32.63
71145;BME280;58812;47.698;17.726;2023-03-23T14:09:45;99846.16;;;21.25;32.67
71145;BME280;58812;47.698;17.726;2023-03-23T14:12:25;99848.69;;;21.01;32.95
71145;BME280;58812;47.698;17.726;2023-03-23T14:14:58;99836.97;;;20.83;33.93
71145;BME280;58812;47.698;17.726;2023-03-23T14:17:33;99830.38;;;20.90;33.84
71145;BME280;58812;47.698;17.726;2023-03-23T14:20:05;99836.72;;;20.84;33.91
71145;BME280;58812;47.698;17.726;2023-03-23T14:22:36;99833.41;;;20.82;33.91
71145;BME280;58812;47.698;17.726;2023-03-23T14:25:15;99840.50;;;20.83;33.95
71145;BME280;58812;47.698;17.726;2023-03-23T14:27:41;99838.53;;;20.72;34.23
71145;BME280;58812;47.698;17.726;2023-03-23T14:30:16;99846.72;;;20.90;34.27
71145;BME280;58812;47.698;17.726;2023-03-23T14:32:42;99841.53;;;21.07;34.20
71145;BME280;58812;47.698;17.726;2023-03-23T14:35:30;99846.13;;;21.06;34.41
71145;BME280;58812;47.698;17.726;2023-03-23T14:37:56;99842.94;;;21.10;34.07
71145;BME280;58812;47.698;17.726;2023-03-23T14:40:26;99837.66;;;20.96;33.94
71145;BME280;58812;47.698;17.726;2023-03-23T14:42:52;99833.72;;;20.92;34.41
71145;BME280;58812;47.698;17.726;2023-03-23T14:45:20;99838.56;;;21.08;35.03
71145;BME280;58812;47.698;17.726;2023-03-23T14:47:56;99838.12;;;21.12;34.96
71145;BME280;58812;47.698;17.726;2023-03-23T14:50:40;99830.75;;;21.37;34.55
71145;BME280;58812;47.698;17.726;2023-03-23T14:53:18;99823.81;;;21.16;34.26